METAR Data
IDs: Format: Raw Decoded Include TAF

Data at: 1102 UTC 18 Jan 2022

KCAG 181053Z AUTO 00000KT 10SM CLR M17/M19 A3001 RMK AO2 SLP234 T11721194
KCAG 180953Z AUTO 00000KT 10SM CLR M16/M17 A3001 RMK AO2 SLP229 T11561167
KCAG 180853Z AUTO 00000KT 10SM CLR M16/M17 A3000 RMK AO2 SLP227 T11561167 56007
KCAG 180753Z AUTO 00000KT 10SM CLR M14/M17 A3001 RMK AO2 SLP228 T11391167
KCAG 180653Z AUTO 00000KT 10SM CLR M14/M16 A3002 RMK AO2 SLP238 T11391161 410171189
KCAG 180553Z AUTO 00000KT 10SM CLR M14/M17 A3003 RMK AO2 SLP248 T11391167 11044 21144 55006
KCAG 180453Z AUTO 24003KT 10SM CLR M13/M16 A3003 RMK AO2 SLP254 T11331156
KCAG 180353Z AUTO 00000KT 10SM CLR M12/M15 A3004 RMK AO2 SLP267 T11221150
KCAG 180253Z AUTO 00000KT 10SM CLR M13/M14 A3005 RMK AO2 SLP278 T11281139 51004
KCAG 180153Z AUTO 00000KT 10SM CLR M09/M13 A3005 RMK AO2 SLP271 T10941133
KCAG 180053Z AUTO 00000KT 10SM CLR M09/M13 A3004 RMK AO2 SLP268 T10941128
KCAG 172353Z AUTO 00000KT 10SM CLR M04/M10 A3004 RMK AO2 SLP251 T10441100 11017 21089 56011
KCAG 172253Z AUTO 27004KT 10SM CLR M03/M09 A3004 RMK AO2 SLP247 T10281094
KCAG 172153Z AUTO 22003KT 10SM CLR M02/M09 A3006 RMK AO2 SLP254 T10221094
KCAG 172053Z AUTO 00000KT 10SM CLR M03/M10 A3008 RMK AO2 SLP257 T10281100 58025
KCAG 171953Z AUTO 23004KT 10SM CLR M04/M11 A3013 RMK AO2 SLP279 T10441106
KCAG 171853Z AUTO 22005KT 10SM CLR M07/M12 A3014 RMK AO2 SLP287 T10671117
KCAG 171753Z AUTO 23005KT 10SM CLR M09/M14 A3017 RMK AO2 SLP303 T10891139 11089 21189 50000
KCAG 171653Z AUTO 00000KT 10SM CLR M12/M14 A3018 RMK AO2 SLP307 T11171144
KCAG 171553Z AUTO 00000KT 10SM CLR M16/M17 A3017 RMK AO2 SLP315 T11561172
KCAG 171453Z AUTO 00000KT 10SM CLR M17/M19 A3017 RMK AO2 SLP315 T11721194 55001
KCAG 171353Z AUTO 22004KT 10SM CLR M18/M21 A3016 RMK AO2 SLP308 T11831211
KCAG 171253Z AUTO 27003KT 10SM CLR M18/M21 A3016 RMK AO2 SLP308 T11831211
KCAG 171153Z AUTO 00000KT 10SM CLR M18/M21 A3017 RMK AO2 SLP304 T11831206 11139 21189 58009
KCAG 171053Z AUTO 25003KT 10SM CLR M18/M19 A3018 RMK AO2 SLP296 T11781194
KCAG 170953Z AUTO 00000KT 10SM CLR M18/M19 A3020 RMK AO2 SLP306 T11781194
KCAG 170853Z AUTO 24003KT 10SM CLR M16/M18 A3020 RMK AO2 SLP304 T11611178 58003
KCAG 170753Z AUTO 00000KT 10SM CLR M16/M18 A3020 RMK AO2 SLP305 T11611183
KCAG 170653Z AUTO 26005KT 10SM CLR M16/M18 A3021 RMK AO2 SLP313 T11611178 410221172
KCAG 170553Z AUTO 00000KT 10SM CLR M16/M17 A3021 RMK AO2 SLP320 T11561172 11067 21161 57002
KCAG 170453Z AUTO 28003KT 10SM CLR M13/M16 A3021 RMK AO2 SLP317 T11331161
KCAG 170353Z AUTO 00000KT 10SM CLR M13/M16 A3022 RMK AO2 SLP327 T11281156
KCAG 170253Z AUTO 00000KT 10SM CLR M12/M14 A3022 RMK AO2 SLP331 T11171139 50006
KCAG 170153Z AUTO 05004KT 10SM CLR M09/M12 A3022 RMK AO2 SLP327 T10891122
KCAG 170053Z AUTO 24004KT 10SM CLR M09/M13 A3020 RMK AO2 SLP308 T10891128
KCAG 162353Z AUTO 17003KT 10SM CLR M07/M11 A3020 RMK AO2 SLP302 T10671111 11022 21089 56007